createdAt,value
2019-01-03T00:01:15.519Z,101641.67
2019-01-03T00:03:56.476Z,101645.85
2019-01-03T00:06:37.126Z,101649.94
2019-01-03T00:09:18.247Z,101669.73
2019-01-03T00:11:59.036Z,101671.25
2019-01-03T00:14:40.079Z,101669.28
2019-01-03T00:17:20.849Z,101666.56
2019-01-03T00:20:01.318Z,101667.52
2019-01-03T00:22:41.767Z,101677.51
2019-01-03T00:25:22.465Z,101681.34
2019-01-03T00:28:03.554Z,101675.53
2019-01-03T00:30:44.178Z,101679.72
2019-01-03T00:33:24.845Z,101682.90
2019-01-03T00:36:05.314Z,101672.68
2019-01-03T00:38:45.873Z,101677.17
2019-01-03T00:41:26.755Z,101678.72
2019-01-03T00:44:07.683Z,101682.19
2019-01-03T00:46:48.958Z,101689.06
2019-01-03T00:49:29.686Z,101685.36
2019-01-03T00:52:10.021Z,101694.03
2019-01-03T00:54:50.705Z,101684.61
2019-01-03T00:57:31.475Z,101687.00
2019-01-03T01:00:12.401Z,101692.22
2019-01-03T01:02:53.517Z,101694.69
2019-01-03T01:05:34.718Z,101701.59
2019-01-03T01:08:15.682Z,101702.50
2019-01-03T01:10:56.656Z,101710.63
2019-01-03T01:13:37.706Z,101708.93
2019-01-03T01:16:18.582Z,101714.42
2019-01-03T01:18:59.534Z,101713.52
2019-01-03T01:21:40.222Z,101719.05
2019-01-03T01:24:21.494Z,101723.02
2019-01-03T01:27:02.493Z,101731.30
2019-01-03T01:29:43.361Z,101731.87
2019-01-03T01:32:24.314Z,101738.86
2019-01-03T01:35:04.571Z,101741.84
2019-01-03T01:37:45.961Z,101752.36
2019-01-03T01:40:27.209Z,101757.00
2019-01-03T01:43:08.529Z,101765.87
2019-01-03T01:45:49.640Z,101777.57
2019-01-03T01:48:30.715Z,101793.15
2019-01-03T01:51:12.015Z,101799.59
2019-01-03T01:53:53.273Z,101811.09
2019-01-03T01:56:34.340Z,101817.53
2019-01-03T01:59:15.181Z,101820.30
2019-01-03T02:01:55.832Z,101829.53
2019-01-03T02:04:36.464Z,101826.60
2019-01-03T02:07:16.967Z,101826.45
2019-01-03T02:09:57.533Z,101833.35
2019-01-03T02:12:37.797Z,101845.69
2019-01-03T02:15:18.883Z,101853.12
2019-01-03T02:17:59.519Z,101855.97
2019-01-03T02:20:40.530Z,101859.47
2019-01-03T02:23:21.594Z,101861.98
2019-01-03T02:26:02.391Z,101865.25
2019-01-03T02:28:43.242Z,101869.07
2019-01-03T02:31:23.627Z,101873.60
2019-01-03T02:34:04.252Z,101880.69
2019-01-03T02:36:45.131Z,101883.10
2019-01-03T02:39:26.088Z,101894.33
2019-01-03T02:42:06.762Z,101896.31
2019-01-03T02:44:48.010Z,101890.84
2019-01-03T02:47:29.014Z,101889.11
2019-01-03T02:50:09.817Z,101888.19
2019-01-03T02:52:50.451Z,101902.77
2019-01-03T02:55:30.722Z,101921.34
2019-01-03T02:58:11.488Z,101932.89
2019-01-03T03:00:51.946Z,101931.13
2019-01-03T03:03:32.414Z,101937.28
2019-01-03T03:06:13.280Z,101932.13
2019-01-03T03:08:53.581Z,101930.98
2019-01-03T03:11:34.401Z,101949.24
2019-01-03T03:14:14.560Z,101965.02
2019-01-03T03:16:54.597Z,101955.69
2019-01-03T03:19:35.688Z,101957.00
2019-01-03T03:22:16.659Z,101963.41
2019-01-03T03:24:56.880Z,101960.81
2019-01-03T03:27:37.222Z,101963.03
2019-01-03T03:30:17.607Z,101958.69
2019-01-03T03:32:58.624Z,101960.55
2019-01-03T03:35:39.512Z,101967.48
2019-01-03T03:38:20.270Z,101973.39
2019-01-03T03:41:01.211Z,101982.13
2019-01-03T03:43:41.816Z,101965.96
2019-01-03T03:46:22.721Z,101969.98
2019-01-03T03:49:03.974Z,101970.66
2019-01-03T03:51:45.289Z,101964.41
2019-01-03T03:54:26.294Z,101967.73
2019-01-03T03:57:07.268Z,101962.92
2019-01-03T03:59:47.934Z,101956.81
2019-01-03T04:02:28.479Z,101966.39
2019-01-03T04:05:08.947Z,101970.27
2019-01-03T04:07:49.615Z,101968.16
2019-01-03T04:10:29.802Z,101960.14
2019-01-03T04:13:10.556Z,101961.81
2019-01-03T04:15:51.725Z,101941.60
2019-01-03T04:18:32.015Z,101934.98
2019-01-03T04:21:12.969Z,101935.37
2019-01-03T04:23:53.612Z,101931.70
2019-01-03T04:26:34.651Z,101926.31
2019-01-03T04:29:15.199Z,101934.45
2019-01-03T04:31:56.235Z,101926.52
2019-01-03T04:34:37.023Z,101917.74
2019-01-03T04:37:17.684Z,101922.55
2019-01-03T04:39:58.395Z,101919.05
2019-01-03T04:42:39.093Z,101919.70
2019-01-03T04:45:20.010Z,101919.56
2019-01-03T04:48:00.852Z,101913.89
2019-01-03T04:50:41.319Z,101916.41
2019-01-03T04:53:22.564Z,101903.67
2019-01-03T04:56:03.842Z,101902.59
2019-01-03T04:58:44.860Z,101897.92
2019-01-03T05:01:25.451Z,101883.97
2019-01-03T05:04:06.006Z,101877.28
2019-01-03T05:06:46.723Z,101871.53
2019-01-03T05:09:27.533Z,101862.23
2019-01-03T05:12:08.670Z,101864.06
2019-01-03T05:14:49.427Z,101859.94
2019-01-03T05:17:30.589Z,101865.77
2019-01-03T05:20:11.397Z,101870.41
2019-01-03T05:22:51.788Z,101869.05
2019-01-03T05:25:32.226Z,101857.22
2019-01-03T05:28:12.577Z,101854.45
2019-01-03T05:30:52.938Z,101842.92
2019-01-03T05:37:59.926Z,101832.17
2019-01-03T05:40:40.592Z,101831.36
2019-01-03T05:43:20.765Z,101829.52
2019-01-03T05:46:01.520Z,101827.66
2019-01-03T05:48:42.162Z,101822.14
2019-01-03T05:51:22.944Z,101813.30
2019-01-03T05:54:02.996Z,101814.48
2019-01-03T05:56:43.881Z,101806.61
2019-01-03T05:59:24.876Z,101812.45
2019-01-03T06:02:05.835Z,101804.59
2019-01-03T06:04:47.074Z,101796.76
2019-01-03T06:07:28.153Z,101792.94
2019-01-03T06:10:08.521Z,101780.89
2019-01-03T06:12:49.197Z,101768.20
2019-01-03T06:15:29.744Z,101764.03
2019-01-03T06:18:10.642Z,101755.86
2019-01-03T06:20:50.874Z,101750.83
2019-01-03T06:23:31.778Z,101743.97
2019-01-03T06:26:12.509Z,101755.28
2019-01-03T06:28:52.788Z,101761.34
2019-01-03T06:31:33.675Z,101749.52
2019-01-03T06:34:14.458Z,101747.33
2019-01-03T06:36:54.876Z,101739.84
2019-01-03T06:39:35.353Z,101738.84
2019-01-03T06:42:15.592Z,101735.14
2019-01-03T06:44:56.076Z,101726.11
2019-01-03T06:47:36.745Z,101720.12
2019-01-03T06:50:17.183Z,101712.08
2019-01-03T07:21:07.213Z,101652.08
2019-01-03T07:23:48.191Z,101649.91
2019-01-03T07:26:29.123Z,101650.50
2019-01-03T07:29:09.576Z,101638.23
2019-01-03T07:31:50.043Z,101634.13
2019-01-03T07:34:30.514Z,101635.61
2019-01-03T07:37:11.043Z,101637.45
2019-01-03T07:39:51.811Z,101635.23
2019-01-03T07:42:32.738Z,101624.48
2019-01-03T07:45:13.039Z,101617.58
2019-01-03T07:47:53.669Z,101617.84
2019-01-03T07:50:34.105Z,101608.17
2019-01-03T07:53:15.245Z,101606.95
2019-01-03T07:55:56.283Z,101602.81
2019-01-03T07:58:36.698Z,101605.03
2019-01-03T08:01:17.463Z,101600.09
2019-01-03T08:04:04.986Z,101589.08
2019-01-03T08:06:46.384Z,101593.27
2019-01-03T08:09:26.826Z,101592.09
2019-01-03T08:12:08.313Z,101598.72
2019-01-03T08:14:48.659Z,101592.83
2019-01-03T08:17:29.330Z,101581.67
2019-01-03T08:20:10.203Z,101576.57
2019-01-03T08:22:50.743Z,101568.16
2019-01-03T08:25:31.438Z,101572.03
2019-01-03T08:35:34.118Z,101562.77
2019-01-03T08:38:14.874Z,101562.54
2019-01-03T08:40:55.555Z,101566.40
2019-01-03T08:43:36.442Z,101558.89
2019-01-03T08:46:17.350Z,101556.05
2019-01-03T08:49:00.591Z,101550.64
2019-01-03T08:51:39.472Z,101550.09
2019-01-03T08:54:19.923Z,101538.85
2019-01-03T08:57:00.608Z,101548.27
2019-01-03T08:59:41.241Z,101547.53
2019-01-03T09:02:21.862Z,101551.63
2019-01-03T09:05:02.276Z,101540.48
2019-01-03T09:07:42.938Z,101548.66
2019-01-03T09:10:23.586Z,101547.19
2019-01-03T09:13:04.170Z,101558.53
2019-01-03T09:15:44.772Z,101553.02
2019-01-03T09:33:13.945Z,101538.39
2019-01-03T09:35:54.550Z,101543.41
2019-01-03T09:38:35.544Z,101543.41
2019-01-03T09:41:16.507Z,101554.23
2019-01-03T09:43:57.537Z,101546.47
2019-01-03T09:46:38.662Z,101544.47
2019-01-03T09:49:19.712Z,101540.25
2019-01-03T09:52:00.298Z,101543.92
2019-01-03T09:54:41.388Z,101546.27
2019-01-03T09:57:22.319Z,101536.27
2019-01-03T10:00:02.893Z,101543.55
2019-01-03T10:02:43.245Z,101544.39
2019-01-03T10:05:24.261Z,101539.78
2019-01-03T10:08:05.588Z,101538.16
2019-01-03T10:10:47.225Z,101536.17
2019-01-03T10:13:28.194Z,101537.36
2019-01-03T10:16:08.545Z,101531.74
2019-01-03T10:18:49.438Z,101529.06
2019-01-03T10:21:30.092Z,101534.91
2019-01-03T10:24:10.469Z,101534.72
2019-01-03T10:26:51.264Z,101532.30
2019-01-03T10:29:32.413Z,101527.93
2019-01-03T10:32:14.095Z,101523.87
2019-01-03T10:34:54.645Z,101519.80
2019-01-03T10:37:35.588Z,101528.35
2019-01-03T10:40:16.814Z,101522.33
2019-01-03T10:42:57.445Z,101519.62
2019-01-03T10:45:37.931Z,101526.91
2019-01-03T10:48:18.384Z,101527.33
2019-01-03T10:50:59.093Z,101527.73
2019-01-03T10:53:39.620Z,101518.74
2019-01-03T10:56:20.280Z,101518.03
2019-01-03T10:59:00.645Z,101513.02
2019-01-03T11:01:41.820Z,101521.41
2019-01-03T11:04:22.712Z,101518.66
2019-01-03T11:07:03.571Z,101521.50
2019-01-03T11:09:43.935Z,101521.47
2019-01-03T11:12:24.642Z,101506.49
2019-01-03T11:15:05.693Z,101507.02
2019-01-03T11:17:46.455Z,101517.94
2019-01-03T11:20:27.626Z,101517.56
2019-01-03T11:23:08.512Z,101517.81
2019-01-03T11:25:49.349Z,101520.71
2019-01-03T11:28:30.592Z,101523.84
2019-01-03T11:31:11.414Z,101519.38
2019-01-03T11:33:52.341Z,101531.34
2019-01-03T11:36:33.099Z,101525.11
2019-01-03T11:39:13.710Z,101531.38
2019-01-03T11:41:53.987Z,101535.86
2019-01-03T11:44:34.320Z,101530.53
2019-01-03T11:47:15.327Z,101531.69
2019-01-03T11:49:56.011Z,101527.67
2019-01-03T11:52:36.828Z,101535.74
2019-01-03T11:55:17.296Z,101542.70
2019-01-03T11:57:57.962Z,101533.36
2019-01-03T12:00:38.622Z,101532.02
2019-01-03T12:03:19.092Z,101535.97
2019-01-03T12:05:59.546Z,101538.71
2019-01-03T12:08:40.225Z,101544.20
2019-01-03T12:11:20.786Z,101547.03
2019-01-03T12:14:01.307Z,101542.94
2019-01-03T12:16:42.205Z,101551.28
2019-01-03T12:19:23.212Z,101563.33
2019-01-03T12:22:04.176Z,101564.86
2019-01-03T12:24:44.937Z,101567.49
2019-01-03T12:27:25.495Z,101569.37
2019-01-03T12:30:06.291Z,101565.76
2019-01-03T12:32:46.850Z,101574.22
2019-01-03T12:35:28.163Z,101569.60
2019-01-03T12:38:08.921Z,101570.36
2019-01-03T12:40:49.536Z,101586.15
2019-01-03T12:43:29.936Z,101582.28
2019-01-03T12:50:15.720Z,101592.39
2019-01-03T12:52:56.288Z,101592.77
2019-01-03T12:55:36.868Z,101589.13
2019-01-03T12:58:17.223Z,101595.22
2019-01-03T13:00:57.864Z,101591.45
2019-01-03T13:03:39.218Z,101596.53
2019-01-03T13:06:21.060Z,101599.06
2019-01-03T13:09:02.421Z,101604.44
2019-01-03T13:11:43.407Z,101596.45
2019-01-03T13:14:24.024Z,101597.92
2019-01-03T13:17:05.635Z,101601.43
2019-01-03T13:19:46.313Z,101603.80
2019-01-03T13:22:26.790Z,101604.38
2019-01-03T13:25:07.503Z,101601.64
2019-01-03T13:27:49.114Z,101602.32
2019-01-03T13:30:30.225Z,101598.78
2019-01-03T13:33:11.352Z,101600.59
2019-01-03T13:35:52.394Z,101601.62
2019-01-03T13:38:33.203Z,101606.27
2019-01-03T13:41:14.344Z,101619.19
2019-01-03T13:43:55.215Z,101615.90
2019-01-03T13:46:35.625Z,101622.94
2019-01-03T13:49:16.545Z,101626.89
2019-01-03T13:51:57.147Z,101623.42
2019-01-03T13:54:38.183Z,101628.38
2019-01-03T13:57:18.944Z,101625.66
2019-01-03T13:59:59.855Z,101635.84
2019-01-03T14:02:40.787Z,101638.47
2019-01-03T14:05:21.954Z,101642.12
2019-01-03T14:08:03.240Z,101652.81
2019-01-03T14:10:44.218Z,101643.06
2019-01-03T14:13:24.780Z,101643.44
2019-01-03T14:16:05.017Z,101642.23
2019-01-03T14:18:45.589Z,101644.64
2019-01-03T14:21:26.487Z,101640.60
2019-01-03T14:24:07.345Z,101650.51
2019-01-03T14:26:48.334Z,101655.09
2019-01-03T14:29:29.066Z,101653.84
2019-01-03T14:32:09.772Z,101654.67
2019-01-03T14:34:50.637Z,101658.23
2019-01-03T14:37:31.493Z,101661.09
2019-01-03T14:40:12.499Z,101657.16
2019-01-03T14:42:52.788Z,101656.87
2019-01-03T14:45:33.273Z,101655.08
2019-01-03T14:48:14.154Z,101652.19
2019-01-03T14:50:54.615Z,101649.54
2019-01-03T14:53:41.791Z,101649.81
2019-01-03T14:56:32.109Z,101652.91
2019-01-03T15:02:06.642Z,101641.34
2019-01-03T15:05:00.199Z,101644.22
2019-01-03T15:07:51.075Z,101662.58
2019-01-03T15:10:38.600Z,101655.89
2019-01-03T15:13:27.986Z,101655.05
2019-01-03T15:19:12.780Z,101652.29
2019-01-03T15:24:48.395Z,101650.42
2019-01-03T15:27:36.190Z,101658.15
2019-01-03T15:30:29.876Z,101661.52
2019-01-03T15:36:08.628Z,101657.42
2019-01-03T15:38:53.872Z,101663.67
2019-01-03T15:50:06.096Z,101669.20
2019-01-03T15:55:40.790Z,101649.28
2019-01-03T15:58:24.902Z,101644.34
2019-01-03T16:01:06.202Z,101654.06
2019-01-03T16:03:50.278Z,101651.27
2019-01-03T16:09:28.190Z,101639.20
2019-01-03T16:12:14.112Z,101641.47
2019-01-03T16:14:56.779Z,101652.67
2019-01-03T16:17:40.953Z,101633.57
2019-01-03T16:26:06.472Z,101643.80
2019-01-03T16:28:49.795Z,101642.77
2019-01-03T16:31:35.549Z,101646.00
2019-01-03T16:34:24.144Z,101638.15
2019-01-03T16:37:17.392Z,101647.95
2019-01-03T16:39:59.140Z,101644.03
2019-01-03T16:42:42.587Z,101642.58
2019-01-03T16:45:36.715Z,101641.09
2019-01-03T16:51:10.825Z,101648.83
2019-01-03T16:53:56.259Z,101640.42
2019-01-03T16:56:40.526Z,101647.43
2019-01-03T16:59:22.836Z,101642.52
2019-01-03T17:02:08.032Z,101647.89
2019-01-03T17:04:53.732Z,101652.27
2019-01-03T17:07:38.389Z,101649.88
2019-01-03T17:10:26.308Z,101647.70
2019-01-03T17:13:07.349Z,101654.50
2019-01-03T17:18:48.921Z,101655.64
2019-01-03T17:21:29.815Z,101660.22
2019-01-03T17:24:10.971Z,101662.38
2019-01-03T17:26:55.510Z,101650.87
2019-01-03T17:29:45.305Z,101658.08
2019-01-03T17:32:26.335Z,101662.25
2019-01-03T17:35:07.187Z,101647.95
2019-01-03T17:37:47.499Z,101659.02
2019-01-03T17:40:28.716Z,101662.02
2019-01-03T17:43:09.584Z,101662.31
2019-01-03T17:45:49.858Z,101662.17
2019-01-03T17:48:30.536Z,101668.83
2019-01-03T17:51:11.469Z,101664.92
2019-01-03T17:53:52.338Z,101672.30
2019-01-03T17:56:37.439Z,101665.69
2019-01-03T17:59:28.469Z,101659.67
2019-01-03T18:02:17.318Z,101671.59
2019-01-03T18:05:01.317Z,101664.84
2019-01-03T18:10:30.316Z,101663.13
2019-01-03T18:13:14.358Z,101663.75
2019-01-03T18:18:44.282Z,101673.82
2019-01-03T18:21:25.361Z,101668.34
2019-01-03T18:24:08.424Z,101669.02
2019-01-03T18:26:53.920Z,101669.30
2019-01-03T18:29:38.775Z,101666.89
2019-01-03T18:32:19.834Z,101672.59
2019-01-03T18:35:00.506Z,101676.89
2019-01-03T18:37:41.466Z,101676.50
2019-01-03T18:40:22.173Z,101674.28
2019-01-03T18:43:04.567Z,101682.72
2019-01-03T18:45:45.333Z,101688.13
2019-01-03T18:48:26.174Z,101676.53
2019-01-03T18:51:06.497Z,101674.89
2019-01-03T18:53:47.055Z,101682.00
2019-01-03T18:56:28.337Z,101674.71
2019-01-03T18:59:09.143Z,101673.80
2019-01-03T19:01:50.233Z,101676.02
2019-01-03T19:04:32.062Z,101667.48
2019-01-03T19:07:13.977Z,101663.47
2019-01-03T19:09:55.692Z,101660.27
2019-01-03T19:12:36.910Z,101662.98
2019-01-03T19:15:18.502Z,101664.02
2019-01-03T19:18:00.561Z,101658.95
2019-01-03T19:20:41.182Z,101665.66
2019-01-03T19:23:22.057Z,101657.41
2019-01-03T19:26:02.508Z,101659.34
2019-01-03T19:28:43.029Z,101662.34
2019-01-03T19:31:24.682Z,101659.61
2019-01-03T19:34:05.541Z,101662.34
2019-01-03T19:36:50.227Z,101654.21
2019-01-03T19:39:31.161Z,101656.28
2019-01-03T19:42:12.544Z,101655.52
2019-01-03T19:44:54.845Z,101648.81
2019-01-03T19:47:43.873Z,101646.84
2019-01-03T19:50:25.312Z,101654.98
2019-01-03T19:53:05.998Z,101648.08
2019-01-03T19:55:46.909Z,101646.00
2019-01-03T19:58:27.594Z,101651.42
2019-01-03T20:01:08.876Z,101647.97
2019-01-03T20:03:49.435Z,101650.70
2019-01-03T20:06:30.304Z,101642.66
2019-01-03T20:09:11.110Z,101652.56
2019-01-03T20:11:52.083Z,101642.12
2019-01-03T20:14:32.984Z,101643.44
2019-01-03T20:17:13.948Z,101645.58
2019-01-03T20:19:54.889Z,101639.02
2019-01-03T20:22:35.936Z,101637.07
2019-01-03T20:25:16.801Z,101630.72
2019-01-03T20:27:57.407Z,101636.77
2019-01-03T20:30:38.278Z,101633.48
2019-01-03T20:33:19.045Z,101633.30
2019-01-03T20:36:00.051Z,101637.20
2019-01-03T20:38:40.987Z,101635.63
2019-01-03T20:41:21.942Z,101635.17
2019-01-03T20:44:02.703Z,101633.41
2019-01-03T20:46:43.686Z,101630.30
2019-01-03T20:49:24.498Z,101629.92
2019-01-03T20:52:05.529Z,101622.41
2019-01-03T20:54:46.297Z,101620.73
2019-01-03T20:57:26.560Z,101617.81
2019-01-03T21:00:07.439Z,101614.36
2019-01-03T21:02:47.775Z,101613.14
2019-01-03T21:05:28.264Z,101612.34
2019-01-03T21:08:08.701Z,101614.75
2019-01-03T21:10:49.374Z,101615.52
2019-01-03T21:13:29.658Z,101608.45
2019-01-03T21:16:10.202Z,101604.24
2019-01-03T21:18:50.884Z,101599.80
2019-01-03T21:21:31.421Z,101596.28
2019-01-03T21:24:13.129Z,101596.09
2019-01-03T21:26:54.523Z,101602.64
2019-01-03T21:29:35.261Z,101603.98
2019-01-03T21:32:16.000Z,101593.30
2019-01-03T21:34:56.976Z,101596.28
2019-01-03T21:37:37.487Z,101590.50
2019-01-03T21:40:18.580Z,101589.23
2019-01-03T21:42:59.216Z,101593.88
2019-01-03T21:45:39.615Z,101599.50
2019-01-03T21:48:20.169Z,101592.33
2019-01-03T21:51:01.004Z,101577.09
2019-01-03T21:53:42.249Z,101590.72
2019-01-03T21:56:22.847Z,101590.64
2019-01-03T21:59:03.562Z,101588.50
2019-01-03T22:01:44.075Z,101587.92
2019-01-03T22:04:25.083Z,101597.80
2019-01-03T22:07:06.239Z,101597.27
2019-01-03T22:09:47.208Z,101599.11
2019-01-03T22:12:27.772Z,101597.41
2019-01-03T22:15:08.336Z,101595.66
2019-01-03T22:17:48.563Z,101596.23
2019-01-03T22:20:29.206Z,101606.89
2019-01-03T22:23:09.815Z,101605.63
2019-01-03T22:25:50.523Z,101591.62
2019-01-03T22:28:30.847Z,101584.08
2019-01-03T22:31:11.280Z,101580.03
2019-01-03T22:33:52.078Z,101579.53
2019-01-03T22:36:32.411Z,101581.20
2019-01-03T22:39:13.620Z,101576.08
2019-01-03T22:41:54.573Z,101569.61
2019-01-03T22:44:35.838Z,101580.67
2019-01-03T22:47:16.647Z,101586.28
2019-01-03T22:49:57.760Z,101575.89
2019-01-03T22:52:39.071Z,101576.84
2019-01-03T22:55:20.089Z,101578.73
2019-01-03T22:58:00.864Z,101583.09
2019-01-03T23:00:41.932Z,101578.08
2019-01-03T23:03:23.008Z,101581.73
2019-01-03T23:06:04.199Z,101577.38
2019-01-03T23:08:44.841Z,101578.58
2019-01-03T23:11:25.759Z,101572.61
2019-01-03T23:14:07.048Z,101577.03
2019-01-03T23:16:48.106Z,101584.00
2019-01-03T23:19:28.975Z,101581.89
2019-01-03T23:22:09.695Z,101578.06
2019-01-03T23:24:50.572Z,101580.55
2019-01-03T23:27:30.929Z,101584.77
2019-01-03T23:30:14.226Z,101589.70
2019-01-03T23:32:55.265Z,101583.86
2019-01-03T23:35:36.097Z,101586.50
2019-01-03T23:38:16.056Z,101591.07
2019-01-03T23:40:57.307Z,101594.59
2019-01-03T23:43:38.566Z,101595.01
2019-01-03T23:46:19.839Z,101599.19
2019-01-03T23:49:00.855Z,101603.87
2019-01-03T23:51:41.767Z,101610.44
2019-01-03T23:54:23.071Z,101611.88
2019-01-03T23:57:03.575Z,101612.83
2019-01-03T23:59:44.977Z,101613.49
